Time;durP1;ratioP1;P1;durP2;ratioP2;P2;SDS_P1;SDS_P2;PMS_P1;PMS_P2;Temp;Humidity;BMP_temperature;BMP_pressure;BME280_temperature;BME280_humidity;BME280_pressure;Samples;Min_cycle;Max_cycle;Signal;HPM_P1;HPM_P2
2021/03/02 00:00:00;;;;;;;13.90;10.52;;;5.30;99.50;;;;;;4923761;29;20189;-75
2021/03/02 00:02:27;;;;;;;13.98;10.25;;;5.30;99.30;;;;;;4934498;29;20231;-76
2021/03/02 00:04:56;;;;;;;14.85;10.80;;;5.10;99.70;;;;;;4917186;29;20197;-76
2021/03/02 00:07:22;;;;;;;14.15;10.32;;;5.10;99.90;;;;;;4917063;29;20255;-76
2021/03/02 00:09:49;;;;;;;14.70;11.02;;;5.10;99.90;;;;;;4916859;29;20227;-75
2021/03/02 00:12:26;;;;;;;13.82;9.77;;;5.10;99.90;;;;;;4931378;29;20228;-76
2021/03/02 00:14:53;;;;;;;14.13;10.55;;;5.10;99.90;;;;;;4935038;29;20244;-76
2021/03/02 00:17:27;;;;;;;17.40;9.88;;;5.10;99.90;;;;;;4933791;29;20216;-76
2021/03/02 00:20:20;;;;;;;14.18;10.05;;;5.00;99.90;;;;;;4933790;29;20611;-76
2021/03/02 00:23:07;;;;;;;16.60;10.43;;;5.00;99.90;;;;;;4914793;29;20302;-76
2021/03/02 00:25:37;;;;;;;14.65;10.52;;;4.90;99.90;;;;;;4922753;29;20208;-76
2021/03/02 00:28:09;;;;;;;12.93;10.25;;;4.90;99.90;;;;;;4901268;29;20244;-77
2021/03/02 00:30:38;;;;;;;15.05;11.32;;;4.90;99.90;;;;;;4916675;29;20637;-76
2021/03/02 00:33:07;;;;;;;13.27;10.05;;;4.90;99.80;;;;;;4917596;29;20215;-76
2021/03/02 00:35:33;;;;;;;13.75;9.85;;;4.80;99.90;;;;;;4933699;29;20196;-76
2021/03/02 00:38:00;;;;;;;13.88;10.25;;;4.80;99.60;;;;;;4916950;29;20218;-76
2021/03/02 00:40:27;;;;;;;13.13;9.95;;;4.80;99.90;;;;;;4916013;29;20698;-77
2021/03/02 00:42:53;;;;;;;15.10;10.00;;;4.80;99.80;;;;;;4936838;29;20196;-76
2021/03/02 00:45:21;;;;;;;14.63;11.25;;;4.80;99.80;;;;;;4919706;29;20279;-76
2021/03/02 00:47:52;;;;;;;15.50;10.52;;;4.80;99.80;;;;;;4927891;29;20653;-77
2021/03/02 00:50:21;;;;;;;15.85;11.52;;;4.80;99.80;;;;;;4937266;29;20255;-76
2021/03/02 00:52:47;;;;;;;16.50;11.10;;;4.80;99.90;;;;;;4937484;29;20224;-77
2021/03/02 00:55:15;;;;;;;19.40;10.63;;;4.70;99.80;;;;;;4920607;29;20219;-76
2021/03/02 00:57:42;;;;;;;14.32;10.70;;;4.80;99.60;;;;;;4919300;29;20311;-77
2021/03/02 01:00:12;;;;;;;14.27;11.10;;;4.70;99.70;;;;;;4920660;29;20203;-77
2021/03/02 01:02:39;;;;;;;13.35;10.80;;;4.60;99.90;;;;;;4937478;29;20228;-77
2021/03/02 01:05:09;;;;;;;14.63;10.73;;;4.60;99.90;;;;;;4918004;29;20575;-76
2021/03/02 01:07:37;;;;;;;15.60;10.90;;;4.60;99.80;;;;;;4916844;29;20224;-77
2021/03/02 01:10:06;;;;;;;15.23;10.07;;;4.60;99.90;;;;;;4912260;29;20199;-77
2021/03/02 01:12:33;;;;;;;19.00;11.38;;;4.60;99.90;;;;;;4936976;29;20243;-77
2021/03/02 01:15:04;;;;;;;16.17;10.20;;;4.60;99.90;;;;;;4938087;29;20180;-76
2021/03/02 01:17:31;;;;;;;15.65;10.82;;;4.60;99.80;;;;;;4919634;29;20220;-76
2021/03/02 01:19:57;;;;;;;14.48;9.30;;;4.60;99.70;;;;;;4919393;29;20224;-77
2021/03/02 01:22:24;;;;;;;12.73;10.60;;;4.60;99.40;;;;;;4936732;29;20221;-77
2021/03/02 01:24:50;;;;;;;12.60;9.40;;;4.60;99.50;;;;;;4936977;29;20275;-77
2021/03/02 01:27:17;;;;;;;11.25;9.68;;;4.50;99.30;;;;;;4936649;29;20717;-76
2021/03/02 01:29:43;;;;;;;11.15;9.82;;;4.40;99.60;;;;;;4920326;29;20220;-77
2021/03/02 01:32:10;;;;;;;14.50;10.60;;;4.50;99.80;;;;;;4916314;29;20216;-77
2021/03/02 01:34:36;;;;;;;14.18;9.57;;;4.50;99.60;;;;;;4925280;29;20697;-77
2021/03/02 01:37:03;;;;;;;14.38;10.35;;;4.40;99.50;;;;;;4919506;29;20232;-76
2021/03/02 01:39:30;;;;;;;12.68;9.68;;;4.50;99.70;;;;;;4936794;29;20199;-76
2021/03/02 01:41:58;;;;;;;12.98;10.18;;;4.40;99.50;;;;;;4919235;29;20244;-76
2021/03/02 01:44:29;;;;;;;14.32;8.88;;;4.50;99.10;;;;;;4920185;29;20197;-76
2021/03/02 01:46:57;;;;;;;14.63;10.05;;;4.50;99.00;;;;;;4919392;29;20706;-76
2021/03/02 01:49:23;;;;;;;13.20;9.95;;;4.40;99.30;;;;;;4935796;29;20256;-76
2021/03/02 01:51:51;;;;;;;11.55;9.02;;;4.50;98.80;;;;;;4936414;29;20627;-76
2021/03/02 01:54:17;;;;;;;9.48;8.48;;;4.40;99.00;;;;;;4936042;29;20613;-76
2021/03/02 01:56:44;;;;;;;15.35;10.60;;;4.40;98.80;;;;;;4935312;29;20703;-76
2021/03/02 01:59:11;;;;;;;14.23;9.52;;;4.40;99.00;;;;;;4936793;29;20603;-76
2021/03/02 02:01:38;;;;;;;11.77;9.43;;;4.30;98.90;;;;;;4918581;29;20343;-76
2021/03/02 02:04:12;;;;;;;12.00;9.20;;;4.30;98.40;;;;;;4919228;29;20192;-76
2021/03/02 02:06:43;;;;;;;13.82;9.68;;;4.30;98.80;;;;;;4935518;29;20217;-76
2021/03/02 02:09:28;;;;;;;14.68;9.70;;;4.20;99.00;;;;;;4920178;29;20240;-76
2021/03/02 02:12:06;;;;;;;12.77;9.27;;;4.30;98.80;;;;;;4932936;28;20248;-76
2021/03/02 02:14:50;;;;;;;11.27;9.05;;;4.20;98.90;;;;;;4936606;29;20738;-76
2021/03/02 02:17:44;;;;;;;10.20;8.55;;;4.20;98.10;;;;;;4918455;29;20280;-76
2021/03/02 02:20:22;;;;;;;12.30;9.25;;;4.20;98.20;;;;;;4935435;29;20550;-76
2021/03/02 02:23:14;;;;;;;18.10;9.43;;;4.10;98.60;;;;;;4936544;29;20212;-77
2021/03/02 02:26:17;;;;;;;11.35;9.00;;;4.00;98.80;;;;;;4936800;29;20193;-76
2021/03/02 02:28:45;;;;;;;17.90;9.25;;;4.00;98.70;;;;;;4936069;29;20207;-77
2021/03/02 02:31:12;;;;;;;14.25;8.98;;;4.00;99.10;;;;;;4935493;29;20258;-76
2021/03/02 02:33:41;;;;;;;11.15;8.50;;;4.00;98.90;;;;;;4936194;29;20563;-76
2021/03/02 02:36:11;;;;;;;13.18;9.23;;;4.00;98.90;;;;;;4903267;29;20234;-77
2021/03/02 02:38:43;;;;;;;11.60;8.55;;;3.90;99.40;;;;;;4936222;29;20220;-76
2021/03/02 02:41:12;;;;;;;13.23;9.90;;;4.00;99.40;;;;;;4934621;29;20216;-77
2021/03/02 02:43:41;;;;;;;10.90;7.53;;;4.00;99.40;;;;;;4936334;29;20188;-77
2021/03/02 02:46:08;;;;;;;9.30;7.95;;;3.90;99.30;;;;;;4918446;29;20225;-77
2021/03/02 02:48:35;;;;;;;10.57;8.70;;;4.00;99.30;;;;;;4918207;29;20195;-77
2021/03/02 02:51:01;;;;;;;12.40;8.85;;;4.00;99.20;;;;;;4935514;29;20224;-77
2021/03/02 02:53:30;;;;;;;13.65;8.48;;;4.00;99.00;;;;;;4918742;29;20189;-77
2021/03/02 02:56:00;;;;;;;11.43;8.60;;;3.90;99.10;;;;;;4934640;29;20231;-77
2021/03/02 02:58:37;;;;;;;11.80;8.30;;;4.00;99.00;;;;;;4935321;29;20205;-77
2021/03/02 03:01:04;;;;;;;13.00;7.65;;;4.00;98.80;;;;;;4918096;29;20224;-77
2021/03/02 03:03:32;;;;;;;10.75;8.48;;;3.90;99.20;;;;;;4935727;29;20236;-76
2021/03/02 03:06:03;;;;;;;11.90;7.80;;;3.80;98.80;;;;;;4933850;29;20224;-77
2021/03/02 03:08:33;;;;;;;12.65;8.85;;;3.80;98.30;;;;;;4935372;29;20617;-77
2021/03/02 03:11:04;;;;;;;11.80;8.00;;;3.70;98.00;;;;;;4917180;29;20288;-77
2021/03/02 03:13:41;;;;;;;12.88;8.30;;;3.70;98.10;;;;;;4935457;29;20243;-77
2021/03/02 03:16:09;;;;;;;10.02;8.32;;;3.60;98.20;;;;;;4917855;29;20613;-77
2021/03/02 03:18:45;;;;;;;10.60;8.25;;;3.50;97.30;;;;;;4917839;29;20702;-77
2021/03/02 03:21:13;;;;;;;11.10;7.50;;;3.40;98.70;;;;;;4933332;29;20744;-77
2021/03/02 03:23:56;;;;;;;11.27;8.07;;;3.30;98.40;;;;;;4918443;29;20614;-75
2021/03/02 03:26:25;;;;;;;12.73;8.35;;;3.30;97.70;;;;;;4876308;29;20240;-79
2021/03/02 03:28:53;;;;;;;11.18;8.05;;;3.30;98.40;;;;;;4879634;29;20199;-81
2021/03/02 03:31:20;;;;;;;30.02;19.40;;;3.20;98.30;;;;;;4866662;29;20253;-81
2021/03/02 03:33:50;;;;;;;16.17;10.70;;;3.20;98.80;;;;;;4855090;29;20188;-78
2021/03/02 03:36:17;;;;;;;12.32;8.70;;;3.10;98.30;;;;;;4874420;29;20231;-80
2021/03/02 03:38:44;;;;;;;11.35;8.15;;;3.10;99.10;;;;;;4868352;29;20215;-81
2021/03/02 03:41:11;;;;;;;10.85;8.38;;;3.00;98.80;;;;;;4845676;29;20228;-81
2021/03/02 03:43:38;;;;;;;14.13;8.95;;;3.00;98.70;;;;;;4875766;29;20188;-80
2021/03/02 03:46:04;;;;;;;13.98;8.00;;;3.00;99.20;;;;;;4868025;29;20323;-81
2021/03/02 03:48:31;;;;;;;12.68;8.13;;;2.90;99.50;;;;;;4859085;29;20187;-80
2021/03/02 03:50:57;;;;;;;12.35;7.55;;;3.00;99.50;;;;;;4875914;29;20227;-79
2021/03/02 03:53:24;;;;;;;11.38;8.88;;;3.00;99.70;;;;;;4859628;29;20191;-80
2021/03/02 03:55:53;;;;;;;10.50;7.30;;;3.00;99.30;;;;;;4862295;29;20235;-81
2021/03/02 03:58:24;;;;;;;8.75;6.47;;;3.00;99.70;;;;;;4868770;29;20215;-79
2021/03/02 04:00:52;;;;;;;9.07;6.80;;;3.00;98.80;;;;;;4858196;29;20283;-81
2021/03/02 04:03:29;;;;;;;8.82;6.38;;;3.00;98.70;;;;;;4854992;29;20279;-81
2021/03/02 04:05:57;;;;;;;9.50;7.07;;;2.90;99.20;;;;;;4868701;29;20290;-81
2021/03/02 04:08:24;;;;;;;9.85;6.93;;;2.90;99.40;;;;;;4871953;29;20222;-79
2021/03/02 04:10:50;;;;;;;10.65;7.70;;;2.90;99.40;;;;;;4863079;29;20258;-81
2021/03/02 04:13:17;;;;;;;11.82;8.10;;;2.80;99.10;;;;;;4860082;29;20192;-81
2021/03/02 04:15:44;;;;;;;9.25;8.00;;;2.80;99.80;;;;;;4852727;29;20562;-82
2021/03/02 04:18:14;;;;;;;11.90;7.75;;;2.80;99.90;;;;;;4860337;29;20272;-81
2021/03/02 04:20:42;;;;;;;9.68;7.38;;;2.80;99.90;;;;;;4863698;29;20223;-80
2021/03/02 04:23:09;;;;;;;10.93;8.27;;;2.80;99.90;;;;;;4868438;29;20206;-78
2021/03/02 04:25:37;;;;;;;11.38;7.70;;;2.80;99.90;;;;;;4868335;29;20199;-79
2021/03/02 04:28:05;;;;;;;10.63;7.65;;;2.80;99.90;;;;;;4878459;29;20211;-82
2021/03/02 04:30:33;;;;;;;12.75;7.82;;;2.80;99.90;;;;;;4854355;29;20221;-80
2021/03/02 04:33:00;;;;;;;11.85;7.93;;;2.80;99.90;;;;;;4853663;29;20206;-79
2021/03/02 04:35:27;;;;;;;10.05;7.47;;;2.90;99.90;;;;;;4856443;29;20238;-81
2021/03/02 04:37:54;;;;;;;9.93;7.07;;;2.90;99.90;;;;;;4852731;29;20232;-81
2021/03/02 04:40:20;;;;;;;11.18;7.68;;;3.00;99.90;;;;;;4864826;29;20217;-81
2021/03/02 04:42:47;;;;;;;12.05;7.05;;;3.10;99.90;;;;;;4867946;29;20243;-79
2021/03/02 04:45:14;;;;;;;9.27;7.57;;;3.10;99.90;;;;;;4855455;29;20184;-81
2021/03/02 04:47:44;;;;;;;8.85;6.95;;;3.20;99.90;;;;;;4853284;29;20227;-80
2021/03/02 04:50:12;;;;;;;10.13;6.78;;;3.30;99.90;;;;;;4873937;29;20211;-82
2021/03/02 04:52:39;;;;;;;10.10;7.85;;;3.40;99.90;;;;;;4866403;29;20219;-79
2021/03/02 04:55:08;;;;;;;11.05;7.25;;;3.40;99.90;;;;;;4853473;29;20220;-80
2021/03/02 04:57:34;;;;;;;13.00;8.25;;;3.40;99.90;;;;;;4859941;29;20358;-81
2021/03/02 05:00:02;;;;;;;10.27;6.88;;;3.50;99.90;;;;;;4866796;29;20196;-79
2021/03/02 05:02:28;;;;;;;8.85;6.85;;;3.40;99.90;;;;;;4857600;29;20242;-80
2021/03/02 05:04:55;;;;;;;13.90;8.80;;;3.40;99.90;;;;;;4861268;29;20227;-79
2021/03/02 05:07:21;;;;;;;10.18;8.05;;;3.50;99.90;;;;;;4866136;29;20228;-79
2021/03/02 05:09:47;;;;;;;9.93;6.78;;;3.40;99.90;;;;;;4864337;29;20680;-80
2021/03/02 05:12:14;;;;;;;12.48;8.52;;;3.50;99.90;;;;;;4853289;29;20212;-81
2021/03/02 05:14:40;;;;;;;11.98;7.90;;;3.40;99.90;;;;;;4854313;29;20194;-79
2021/03/02 05:17:07;;;;;;;8.15;7.28;;;3.40;99.90;;;;;;4855990;29;20238;-82
2021/03/02 05:19:34;;;;;;;9.23;6.95;;;3.40;99.90;;;;;;4862100;29;20701;-82
2021/03/02 05:22:00;;;;;;;11.10;8.00;;;3.40;99.90;;;;;;4867879;29;20232;-81
2021/03/02 05:24:27;;;;;;;9.10;6.85;;;3.40;99.90;;;;;;4866137;29;20206;-81
2021/03/02 05:26:53;;;;;;;7.60;6.85;;;3.40;99.90;;;;;;4863062;29;20219;-79
2021/03/02 05:29:20;;;;;;;11.13;7.63;;;3.30;99.90;;;;;;4856392;29;20192;-80
2021/03/02 05:31:46;;;;;;;9.35;6.32;;;3.30;99.90;;;;;;4857586;29;20295;-81
2021/03/02 05:34:13;;;;;;;11.20;7.50;;;3.20;99.90;;;;;;4873568;29;20196;-80
2021/03/02 05:36:41;;;;;;;11.57;6.97;;;3.20;99.90;;;;;;4864221;29;20262;-78
2021/03/02 05:39:07;;;;;;;9.93;7.10;;;3.10;99.90;;;;;;4882246;29;20226;-81
2021/03/02 05:41:34;;;;;;;9.73;7.38;;;3.20;99.90;;;;;;4856521;29;20288;-78
2021/03/02 05:44:01;;;;;;;8.65;6.80;;;3.20;99.90;;;;;;4859270;29;20183;-82
2021/03/02 05:46:33;;;;;;;11.18;7.18;;;3.10;99.90;;;;;;4873633;29;20215;-80
2021/03/02 05:49:00;;;;;;;11.00;7.15;;;3.10;99.90;;;;;;4872354;29;20543;-81
2021/03/02 05:51:27;;;;;;;8.95;6.70;;;3.10;99.90;;;;;;4866687;29;20227;-81
2021/03/02 05:53:54;;;;;;;10.18;7.65;;;3.00;99.90;;;;;;4859148;29;20199;-81
2021/03/02 05:56:21;;;;;;;13.60;7.20;;;3.00;99.90;;;;;;4857934;29;20256;-81
2021/03/02 05:58:51;;;;;;;10.73;8.35;;;3.00;99.90;;;;;;4874312;29;20219;-81
2021/03/02 06:01:18;;;;;;;10.65;7.20;;;2.90;99.90;;;;;;4856591;29;20231;-80
2021/03/02 06:03:45;;;;;;;13.50;8.13;;;2.90;99.90;;;;;;4862532;29;20224;-81
2021/03/02 06:06:12;;;;;;;9.70;6.90;;;2.90;99.90;;;;;;4862789;29;20254;-80
2021/03/02 06:08:38;;;;;;;12.43;6.32;;;2.80;99.90;;;;;;4857763;29;20841;-81
2021/03/02 06:11:25;;;;;;;9.35;6.53;;;2.80;99.90;;;;;;4861890;29;20314;-80
2021/03/02 06:13:51;;;;;;;9.20;7.60;;;2.80;99.90;;;;;;4863735;29;20234;-79
2021/03/02 06:16:18;;;;;;;12.60;8.05;;;2.80;99.90;;;;;;4872044;29;20280;-81
2021/03/02 06:18:52;;;;;;;10.93;5.95;;;2.80;99.90;;;;;;4866442;29;20208;-79
2021/03/02 06:21:21;;;;;;;9.63;7.07;;;2.80;99.90;;;;;;4863944;29;20223;-80
2021/03/02 06:23:50;;;;;;;10.02;6.75;;;2.70;99.90;;;;;;4870158;29;20546;-82
2021/03/02 06:26:24;;;;;;;10.98;7.05;;;2.70;99.90;;;;;;4874643;29;20228;-82
2021/03/02 06:28:55;;;;;;;11.77;6.88;;;2.60;99.90;;;;;;4865511;29;20192;-81
2021/03/02 06:31:39;;;;;;;10.00;6.55;;;2.60;99.90;;;;;;4855702;29;20315;-81
2021/03/02 06:34:18;;;;;;;8.60;6.00;;;2.50;99.90;;;;;;4855376;29;20200;-80
2021/03/02 06:36:54;;;;;;;13.70;7.18;;;2.50;99.90;;;;;;4867789;29;20245;-80
2021/03/02 06:39:21;;;;;;;10.98;6.95;;;2.50;99.90;;;;;;4857141;29;20278;-79
2021/03/02 06:41:49;;;;;;;11.82;8.13;;;2.60;99.90;;;;;;4844290;29;20286;-79
2021/03/02 06:44:15;;;;;;;11.07;7.15;;;2.60;99.90;;;;;;4869885;29;20765;-81
2021/03/02 06:46:42;;;;;;;12.23;6.35;;;2.50;99.90;;;;;;4854960;29;20227;-79
2021/03/02 06:49:09;;;;;;;11.60;7.43;;;2.50;99.90;;;;;;4866589;29;20192;-81
2021/03/02 06:51:38;;;;;;;13.77;6.80;;;2.60;99.90;;;;;;4853786;29;20228;-80
2021/03/02 06:54:16;;;;;;;11.45;7.50;;;2.60;99.90;;;;;;4887710;29;20205;-81
2021/03/02 06:56:44;;;;;;;9.40;6.55;;;2.60;99.90;;;;;;4863707;29;20243;-82
2021/03/02 06:59:15;;;;;;;13.05;7.05;;;2.60;99.90;;;;;;4861446;29;20200;-81
2021/03/02 07:01:48;;;;;;;8.90;6.85;;;2.70;99.90;;;;;;4858671;29;20286;-83
2021/03/02 07:04:19;;;;;;;11.80;7.63;;;2.80;99.90;;;;;;4863102;29;20187;-82
2021/03/02 07:06:51;;;;;;;8.15;7.30;;;2.80;99.90;;;;;;4878679;29;20311;-80
2021/03/02 07:09:18;;;;;;;11.55;8.07;;;2.90;99.90;;;;;;4853995;29;20188;-84
2021/03/02 07:11:45;;;;;;;10.85;7.28;;;3.00;99.90;;;;;;4851257;29;20238;-81
2021/03/02 07:14:13;;;;;;;11.95;7.30;;;3.00;99.90;;;;;;4847213;29;20212;-81
2021/03/02 07:16:45;;;;;;;14.68;9.13;;;3.10;99.90;;;;;;4861052;29;20223;-80
2021/03/02 07:19:17;;;;;;;15.60;10.75;;;3.20;99.90;;;;;;4856229;29;20222;-81
2021/03/02 07:21:46;;;;;;;12.45;8.65;;;3.30;99.90;;;;;;4867006;29;20253;-81
2021/03/02 07:24:14;;;;;;;13.43;8.75;;;3.30;99.90;;;;;;4874705;29;20594;-82
2021/03/02 07:26:46;;;;;;;10.77;6.78;;;3.40;99.90;;;;;;4887254;29;20693;-80
2021/03/02 07:29:13;;;;;;;11.32;7.53;;;3.50;99.90;;;;;;4882261;29;20193;-83
2021/03/02 07:31:41;;;;;;;7.30;6.47;;;3.60;99.90;;;;;;4898075;29;20238;-83
2021/03/02 07:34:12;;;;;;;11.27;7.40;;;3.70;99.90;;;;;;4883721;29;20207;-83
2021/03/02 07:36:43;;;;;;;10.73;7.55;;;3.80;99.90;;;;;;4885970;29;20772;-83
2021/03/02 07:39:14;;;;;;;11.70;8.27;;;3.80;99.90;;;;;;4877743;29;20246;-81
2021/03/02 07:41:41;;;;;;;9.93;6.68;;;4.00;99.90;;;;;;4863289;29;20227;-80
2021/03/02 07:44:08;;;;;;;12.25;7.40;;;4.00;99.90;;;;;;4871771;29;20191;-81
2021/03/02 07:46:37;;;;;;;9.85;7.50;;;4.00;99.90;;;;;;4861698;29;20247;-80
2021/03/02 07:49:23;;;;;;;10.20;7.25;;;4.10;99.90;;;;;;4854448;29;20203;-81
2021/03/02 07:52:04;;;;;;;12.20;8.52;;;4.10;99.90;;;;;;4861532;29;20241;-81
2021/03/02 07:54:33;;;;;;;9.65;7.10;;;4.10;99.90;;;;;;4869164;29;20211;-80
2021/03/02 07:57:14;;;;;;;9.30;6.53;;;4.20;99.90;;;;;;4854377;29;20675;-81
2021/03/02 08:00:07;;;;;;;12.63;7.70;;;4.30;99.90;;;;;;4860698;29;20238;-81
2021/03/02 08:02:33;;;;;;;10.55;6.35;;;4.50;99.90;;;;;;4862757;29;20215;-81
2021/03/02 08:05:30;;;;;;;15.13;7.75;;;4.60;99.90;;;;;;4856693;29;20231;-80
2021/03/02 08:08:22;;;;;;;10.70;7.80;;;4.80;99.90;;;;;;4867206;29;20238;-80
2021/03/02 08:10:56;;;;;;;15.77;8.20;;;4.90;99.90;;;;;;4860502;29;20303;-80
2021/03/02 08:13:43;;;;;;;10.75;7.38;;;5.00;99.90;;;;;;4866418;29;20218;-80
2021/03/02 08:16:13;;;;;;;8.95;6.97;;;5.20;99.90;;;;;;4855174;29;20587;-80
2021/03/02 08:18:42;;;;;;;11.02;7.18;;;5.30;99.90;;;;;;4842742;29;20416;-81
2021/03/02 08:21:17;;;;;;;13.43;7.63;;;5.50;99.90;;;;;;4861456;29;20290;-80
2021/03/02 08:23:51;;;;;;;11.23;7.60;;;5.70;99.90;;;;;;4855918;29;20187;-80
2021/03/02 08:26:25;;;;;;;11.70;7.72;;;5.70;99.90;;;;;;4851129;29;20231;-80
2021/03/02 08:29:08;;;;;;;11.35;7.28;;;5.90;99.90;;;;;;4863635;29;20279;-80
2021/03/02 08:31:37;;;;;;;13.63;7.25;;;6.00;99.90;;;;;;4857746;29;20249;-79
2021/03/02 08:34:05;;;;;;;10.43;7.40;;;6.10;99.90;;;;;;4866757;29;20251;-80
2021/03/02 08:36:34;;;;;;;11.10;7.63;;;6.20;99.90;;;;;;4860387;29;20226;-82
2021/03/02 08:39:00;;;;;;;10.90;7.57;;;6.20;99.90;;;;;;4856219;29;20274;-80
2021/03/02 08:41:32;;;;;;;11.93;7.75;;;6.40;99.90;;;;;;4854457;29;20216;-79
2021/03/02 08:44:02;;;;;;;10.93;8.60;;;6.50;99.90;;;;;;4867218;29;20199;-81
2021/03/02 08:46:35;;;;;;;9.77;7.55;;;6.60;99.90;;;;;;4860884;29;20240;-81
2021/03/02 08:49:10;;;;;;;10.35;6.95;;;6.70;99.90;;;;;;4857087;29;20474;-81
2021/03/02 08:51:38;;;;;;;7.18;5.45;;;6.90;99.90;;;;;;4849772;29;20652;-78
2021/03/02 08:54:05;;;;;;;11.02;7.90;;;7.00;99.90;;;;;;4849217;29;20199;-80
2021/03/02 08:56:32;;;;;;;12.00;7.78;;;7.20;99.90;;;;;;4848908;29;20318;-80
2021/03/02 08:59:02;;;;;;;9.18;7.57;;;7.30;99.70;;;;;;4874174;29;20223;-79
2021/03/02 09:01:30;;;;;;;13.32;8.93;;;7.50;99.80;;;;;;4852329;29;20246;-81
2021/03/02 09:04:18;;;;;;;11.20;7.75;;;7.50;99.90;;;;;;4845976;29;20196;-79
2021/03/02 09:06:47;;;;;;;10.85;6.90;;;7.60;99.80;;;;;;4849469;29;20291;-79
2021/03/02 09:09:24;;;;;;;12.60;8.30;;;7.70;99.90;;;;;;4855486;29;20218;-79
2021/03/02 09:11:55;;;;;;;11.82;7.72;;;7.90;99.90;;;;;;4854112;29;20291;-81
2021/03/02 09:14:25;;;;;;;12.63;7.70;;;8.00;99.10;;;;;;4863063;29;20200;-78
2021/03/02 09:16:54;;;;;;;11.35;8.00;;;8.00;98.50;;;;;;4865366;29;20997;-80
2021/03/02 09:19:29;;;;;;;10.48;7.47;;;8.10;98.10;;;;;;4856345;29;20203;-79
2021/03/02 09:22:14;;;;;;;10.57;7.88;;;8.20;97.50;;;;;;4871465;29;20223;-80
2021/03/02 09:24:55;;;;;;;9.25;7.72;;;8.30;97.20;;;;;;4859821;29;20263;-74
2021/03/02 09:27:36;;;;;;;11.02;9.00;;;8.40;97.30;;;;;;4855664;29;20219;-77
2021/03/02 09:30:10;;;;;;;8.70;6.88;;;8.50;97.50;;;;;;4863092;29;20195;-73
2021/03/02 09:32:37;;;;;;;9.93;7.65;;;8.70;96.90;;;;;;4871034;29;20219;-79
2021/03/02 09:35:07;;;;;;;12.98;8.82;;;8.80;95.70;;;;;;4871632;29;20203;-80
2021/03/02 09:37:38;;;;;;;10.07;8.25;;;9.10;97.70;;;;;;4866041;29;20219;-77
2021/03/02 09:40:09;;;;;;;14.00;8.45;;;9.30;97.40;;;;;;4860015;29;20207;-81
2021/03/02 09:42:37;;;;;;;13.18;8.50;;;9.40;97.40;;;;;;4859396;29;20294;-79
2021/03/02 09:45:14;;;;;;;11.77;8.50;;;9.60;96.70;;;;;;4871547;29;20224;-78
2021/03/02 09:47:48;;;;;;;10.18;8.65;;;9.90;96.30;;;;;;4861252;29;20226;-79
2021/03/02 09:50:18;;;;;;;11.27;8.43;;;10.00;94.10;;;;;;4878677;29;20265;-79
2021/03/02 09:52:47;;;;;;;10.20;7.93;;;10.00;93.70;;;;;;4885252;29;20322;-77
2021/03/02 09:55:23;;;;;;;11.63;8.45;;;10.20;92.90;;;;;;4866147;29;20571;-77
2021/03/02 09:58:11;;;;;;;10.05;7.75;;;;;;;;;;4869510;29;20220;-80
2021/03/02 10:00:39;;;;;;;10.55;8.50;;;10.50;92.50;;;;;;4873198;29;20615;-81
2021/03/02 10:03:08;;;;;;;12.75;7.97;;;10.70;92.30;;;;;;4854256;29;20184;-76
2021/03/02 10:05:36;;;;;;;10.67;8.10;;;10.60;93.00;;;;;;4873585;29;20210;-78
2021/03/02 10:08:26;;;;;;;9.40;7.60;;;10.90;92.50;;;;;;4861792;29;20515;-80
2021/03/02 10:10:55;;;;;;;8.73;7.63;;;11.20;91.20;;;;;;4854288;29;20608;-80
2021/03/02 10:13:27;;;;;;;13.00;8.10;;;11.20;92.00;;;;;;4887153;29;20476;-80
2021/03/02 10:16:27;;;;;;;9.90;8.20;;;11.20;90.70;;;;;;4855187;29;20503;-81
2021/03/02 10:19:17;;;;;;;10.10;7.33;;;11.30;90.40;;;;;;4870081;29;20478;-79
2021/03/02 10:21:52;;;;;;;11.03;8.03;;;11.40;89.40;;;;;;4857187;29;21016;-77
2021/03/02 10:24:27;;;;;;;11.40;8.33;;;11.50;90.30;;;;;;4866596;29;20814;-79
2021/03/02 10:26:59;;;;;;;9.10;7.47;;;11.60;90.00;;;;;;4849673;29;20476;-79
2021/03/02 10:29:27;;;;;;;11.43;9.00;;;11.80;88.50;;;;;;4879212;29;20441;-80
2021/03/02 10:31:55;;;;;;;11.37;9.30;;;11.80;90.30;;;;;;4862450;29;20487;-79
2021/03/02 10:34:22;;;;;;;14.83;8.97;;;11.80;88.00;;;;;;4855203;29;20453;-80
2021/03/02 10:36:53;;;;;;;11.27;8.20;;;11.70;90.50;;;;;;4856680;29;20488;-79
2021/03/02 10:39:20;;;;;;;12.93;9.77;;;11.90;90.00;;;;;;4863968;29;20491;-78
2021/03/02 10:41:47;;;;;;;10.83;9.13;;;11.70;91.20;;;;;;4856068;29;20561;-80
2021/03/02 10:44:14;;;;;;;12.40;8.67;;;11.60;91.20;;;;;;4861948;29;20459;-80
2021/03/02 10:46:41;;;;;;;9.67;8.70;;;11.70;91.10;;;;;;4866940;29;20480;-81
2021/03/02 10:49:09;;;;;;;15.23;9.90;;;11.80;91.60;;;;;;4867215;29;20555;-81
2021/03/02 10:51:36;;;;;;;8.90;7.30;;;11.90;91.20;;;;;;4862562;29;20485;-78
2021/03/02 10:54:03;;;;;;;14.20;9.13;;;11.90;90.70;;;;;;4860414;29;20476;-76
2021/03/02 10:56:30;;;;;;;11.83;9.30;;;11.80;90.90;;;;;;4852834;29;21022;-78
2021/03/02 10:58:58;;;;;;;9.20;8.27;;;11.80;90.30;;;;;;4852266;29;20460;-80
2021/03/02 11:01:25;;;;;;;11.80;8.50;;;11.90;90.20;;;;;;4863749;29;20484;-79
2021/03/02 11:03:52;;;;;;;12.80;9.67;;;12.00;88.40;;;;;;4856606;29;20830;-80
2021/03/02 11:06:21;;;;;;;15.07;9.77;;;12.00;88.00;;;;;;4867601;29;20480;-79
2021/03/02 11:09:01;;;;;;;14.13;10.23;;;12.10;87.20;;;;;;4870184;29;20467;-79
2021/03/02 11:11:28;;;;;;;12.60;8.80;;;12.00;88.50;;;;;;4860536;29;20475;-80
2021/03/02 11:13:55;;;;;;;12.50;9.57;;;12.10;88.20;;;;;;4860989;29;20536;-80
2021/03/02 11:16:22;;;;;;;13.10;10.13;;;12.20;88.80;;;;;;4863023;29;20528;-81
2021/03/02 11:18:57;;;;;;;13.37;9.07;;;12.20;87.20;;;;;;4865896;29;21048;-78
2021/03/02 11:21:24;;;;;;;12.30;10.50;;;12.40;87.40;;;;;;4852117;29;20465;-80
2021/03/02 11:23:51;;;;;;;13.70;10.50;;;12.40;87.30;;;;;;4849165;29;20441;-80
2021/03/02 11:26:20;;;;;;;16.27;11.10;;;12.50;88.00;;;;;;4849411;29;20480;-81
2021/03/02 11:28:46;;;;;;;13.57;10.53;;;12.50;88.00;;;;;;4851108;29;20509;-79
2021/03/02 11:31:16;;;;;;;14.33;9.67;;;12.60;85.80;;;;;;4853709;29;20476;-76
2021/03/02 11:33:45;;;;;;;12.90;10.70;;;12.60;85.90;;;;;;4853740;29;20452;-79
2021/03/02 11:36:13;;;;;;;10.40;9.30;;;12.70;85.90;;;;;;4855157;29;20494;-79
2021/03/02 11:38:39;;;;;;;14.27;10.10;;;12.70;85.90;;;;;;4862192;29;20512;-78
2021/03/02 11:41:06;;;;;;;12.33;10.37;;;12.70;84.30;;;;;;4861102;29;20475;-81
2021/03/02 11:43:33;;;;;;;11.97;9.60;;;12.70;85.90;;;;;;4868423;29;20440;-77
2021/03/02 11:45:59;;;;;;;14.57;10.07;;;12.70;87.20;;;;;;4856883;29;21138;-81
2021/03/02 11:48:26;;;;;;;14.63;10.20;;;12.70;85.70;;;;;;4851732;29;20861;-81
2021/03/02 11:50:57;;;;;;;15.10;10.90;;;12.80;84.80;;;;;;4852305;29;20911;-79
2021/03/02 11:53:24;;;;;;;11.57;9.00;;;12.90;83.20;;;;;;4847879;29;20448;-79
2021/03/02 11:55:51;;;;;;;10.47;9.10;;;13.00;81.60;;;;;;4860233;29;20491;-81
2021/03/02 11:58:18;;;;;;;19.50;10.57;;;13.10;80.10;;;;;;4855711;29;20529;-80
2021/03/02 12:00:44;;;;;;;17.47;9.63;;;13.20;80.00;;;;;;4867423;29;20472;-80
2021/03/02 12:03:18;;;;;;;14.80;11.10;;;13.10;82.80;;;;;;4848337;29;20501;-80
2021/03/02 12:05:45;;;;;;;17.63;9.73;;;13.20;82.60;;;;;;4850430;29;20552;-79
2021/03/02 12:08:13;;;;;;;11.70;9.57;;;13.20;81.10;;;;;;4860710;29;20531;-78
2021/03/02 12:10:40;;;;;;;12.27;10.47;;;13.10;80.40;;;;;;4856436;29;20448;-80
2021/03/02 12:13:07;;;;;;;13.93;9.70;;;13.10;80.40;;;;;;4852008;29;20430;-80
2021/03/02 12:15:34;;;;;;;16.47;10.10;;;13.20;82.20;;;;;;4852038;29;20425;-78
2021/03/02 12:18:00;;;;;;;14.97;9.77;;;13.30;77.80;;;;;;4866231;29;20476;-79
2021/03/02 12:20:27;;;;;;;17.10;9.90;;;13.40;76.50;;;;;;4849693;29;20493;-81
2021/03/02 12:22:54;;;;;;;15.60;10.07;;;13.40;77.90;;;;;;4862863;29;20492;-77
2021/03/02 12:25:20;;;;;;;14.87;11.20;;;13.10;82.20;;;;;;4848597;29;20456;-77
2021/03/02 12:27:47;;;;;;;16.77;10.40;;;13.40;80.80;;;;;;4862389;29;20572;-79
2021/03/02 12:30:14;;;;;;;12.77;10.07;;;13.30;81.20;;;;;;4855725;29;20473;-81
2021/03/02 12:32:41;;;;;;;11.60;10.40;;;13.40;79.90;;;;;;4847817;29;20543;-78
2021/03/02 12:35:08;;;;;;;18.00;11.03;;;13.40;79.40;;;;;;4850562;29;20452;-80
2021/03/02 12:37:35;;;;;;;18.60;11.10;;;13.60;77.60;;;;;;4859570;29;20480;-79
2021/03/02 12:40:03;;;;;;;13.43;9.77;;;13.40;80.30;;;;;;4851702;29;20568;-79
2021/03/02 12:42:30;;;;;;;13.53;10.47;;;13.60;77.20;;;;;;4859373;29;20567;-78
2021/03/02 12:44:56;;;;;;;11.93;10.43;;;13.80;75.50;;;;;;4862736;29;20441;-77
2021/03/02 12:47:22;;;;;;;14.57;10.67;;;13.90;74.20;;;;;;4884832;29;20497;-80
2021/03/02 12:49:49;;;;;;;12.27;10.17;;;13.80;76.30;;;;;;4870231;29;20799;-80
2021/03/02 12:52:16;;;;;;;14.60;10.40;;;13.70;76.00;;;;;;4886866;29;20482;-80
2021/03/02 12:54:42;;;;;;;16.53;11.03;;;13.70;77.80;;;;;;4878380;29;20476;-76
2021/03/02 12:57:09;;;;;;;13.83;10.60;;;13.90;76.50;;;;;;4872840;29;20486;-79